This is the latest recevied weather packets stored in our database for station/object DB0NU-15. If no packets are shown the sender has not sent any weather packets the latest 1 day(s).
| Time | Temp. | Humidity | Pressure | Rain* | Wind** | Luminosity | Snow |
|---|---|---|---|---|---|---|---|
| 1778091054 | 14.44° C | 81% | 1006.3 hPa | 0 mm | - | - | - |
| 1778089244 | 14.44° C | 82% | 1006.2 hPa | 0 mm | - | - | - |
| 1778088037 | 15° C | 81% | 1005.9 hPa | 0 mm | - | - | - |
| 1778085020 | 15.56° C | 79% | 1005.8 hPa | 0 mm | - | - | - |
| 1778080855 | 16.67° C | 68% | 1006.1 hPa | 0 mm | - | - | - |
| 1778080250 | 16.67° C | 70% | 1006.1 hPa | 0 mm | - | - | - |
| 1778077233 | 17.78° C | 67% | 1006.1 hPa | 0 mm | - | - | - |
| 1778075423 | 17.22° C | 64% | 1006.2 hPa | 0 mm | - | - | - |
| 1778074216 | 18.33° C | 63% | 1006.2 hPa | 0 mm | - | - | - |
| 1778064018 | 16.11° C | 75% | 1006.9 hPa | 0 mm | - | - | - |
| 1778063475 | 15.56° C | 79% | 1007 hPa | 0 mm | - | - | - |
| 1778062872 | 17.22° C | 75% | 1007.1 hPa | 0 mm | - | - | - |
| 1778060458 | 15° C | 81% | 1007.2 hPa | 0 mm | - | - | - |
| 1778059251 | 15° C | 83% | 1007.1 hPa | 0 mm | - | - | - |
| 1778057441 | 13.89° C | 86% | 1007 hPa | 0 mm | - | - | - |
| 1778056837 | 13.89° C | 87% | 1006.8 hPa | 0 mm | - | - | - |
| 1778056234 | 14.44° C | 88% | 1006.9 hPa | 0 mm | - | - | - |
| 1778054424 | 13.89° C | 91% | 1006.7 hPa | 0 mm | - | - | - |
| 1778053217 | 12.78° C | 92% | 1006.8 hPa | 0 mm | - | - | - |
| 1778052674 | 12.22° C | 94% | 1006.8 hPa | 0 mm | - | - | - |
| 1778051467 | 12.22° C | 98% | 1006.7 hPa | 0 mm | - | - | - |
| 1778049657 | 11.67° C | 99% | 1006.7 hPa | 0 mm | - | - | - |
| 1778048450 | 11.67° C | 99% | 1006.7 hPa | 0 mm | - | - | - |
| 1778047243 | 11.11° C | 99% | 1006.9 hPa | 0 mm | - | - | - |
| 1778046640 | 11.11° C | 99% | 1006.9 hPa | 0 mm | - | - | - |
* Rain latest hour (hover to see other rain measurements)
** Current wind speed in m/s (hover to see current wind gust speed)